Time;durP1;ratioP1;P1;durP2;ratioP2;P2;SDS_P1;SDS_P2;PMS_P1;PMS_P2;Temp;Humidity;BMP_temperature;BMP_pressure;BME280_temperature;BME280_humidity;BME280_pressure;Samples;Min_cycle;Max_cycle;Signal;HPM_P1;HPM_P2
2022/11/18 00:01:34;;;;;;;;;;;23.20;56.80;;;;;;1550452;76;667;-64
2022/11/18 00:03:36;;;;;;;;;;;23.10;56.80;;;;;;1549433;75;609;-64
2022/11/18 00:05:38;;;;;;;;;;;23.20;56.90;;;;;;1537083;75;650;-65
2022/11/18 00:07:40;;;;;;;;;;;23.10;56.90;;;;;;1548487;75;1509;-64
2022/11/18 00:09:42;;;;;;;;;;;23.20;56.80;;;;;;1547149;75;1936;-65
2022/11/18 00:14:19;;;;;;;;;;;23.10;56.90;;;;;;1541630;75;1669;-64
2022/11/18 00:16:21;;;;;;;;;;;23.10;56.90;;;;;;1546539;75;713;-64
2022/11/18 00:18:23;;;;;;;;;;;23.10;57.10;;;;;;1548092;75;1139;-64
2022/11/18 00:20:25;;;;;;;;;;;23.10;57.10;;;;;;1535945;75;632;-64
2022/11/18 00:22:27;;;;;;;;;;;23.00;56.90;;;;;;1539786;75;1478;-64
2022/11/18 00:24:29;;;;;;;;;;;23.10;57.10;;;;;;1543108;75;701;-64
2022/11/18 00:26:31;;;;;;;;;;;23.10;57.00;;;;;;1548553;75;763;-65
2022/11/18 00:28:33;;;;;;;;;;;23.10;57.00;;;;;;1543956;75;1155;-64
2022/11/18 00:30:34;;;;;;;;;;;23.10;57.00;;;;;;1546853;75;1903;-65
2022/11/18 00:32:36;;;;;;;;;;;23.00;57.20;;;;;;1548226;76;619;-64
2022/11/18 00:34:38;;;;;;;;;;;23.00;57.40;;;;;;1545279;75;569;-65
2022/11/18 00:36:40;;;;;;;;;;;23.00;57.50;;;;;;1544831;75;1423;-64
2022/11/18 00:38:42;;;;;;;;;;;22.90;57.60;;;;;;1553032;75;1148;-64
2022/11/18 00:40:44;;;;;;;;;;;22.90;57.60;;;;;;1547708;75;645;-64
2022/11/18 00:42:52;;;;;;;;;;;23.00;57.70;;;;;;1548171;75;657;-64
2022/11/18 00:44:54;;;;;;;;;;;23.00;57.60;;;;;;1542038;75;1002;-63
2022/11/18 00:46:56;;;;;;;;;;;23.00;57.60;;;;;;1548201;75;642;-64
2022/11/18 00:48:58;;;;;;;;;;;23.00;57.50;;;;;;1546923;75;1491;-63
2022/11/18 00:51:01;;;;;;;;;;;23.00;57.50;;;;;;1536216;75;1955;-64
2022/11/18 00:53:03;;;;;;;;;;;23.00;57.50;;;;;;1541301;75;1080;-64
2022/11/18 00:55:05;;;;;;;;;;;23.00;57.60;;;;;;1552310;75;684;-64
2022/11/18 00:57:07;;;;;;;;;;;23.10;57.60;;;;;;1544731;75;677;-64
2022/11/18 00:59:09;;;;;;;;;;;23.00;57.60;;;;;;1547767;75;1103;-64
2022/11/18 01:01:11;;;;;;;;;;;23.00;57.60;;;;;;1547599;75;659;-64
2022/11/18 01:03:12;;;;;;;;;;;23.00;57.40;;;;;;1547425;77;1478;-65
2022/11/18 01:05:14;;;;;;;;;;;23.00;57.50;;;;;;1537091;75;680;-64
2022/11/18 01:07:16;;;;;;;;;;;23.00;57.50;;;;;;1548617;76;716;-64
2022/11/18 01:09:18;;;;;;;;;;;23.00;57.40;;;;;;1543566;75;3077;-68
2022/11/18 01:13:40;;;;;;;;;;;23.00;57.40;;;;;;1561124;74;1703;-68
2022/11/18 01:15:42;;;;;;;;;;;23.10;57.60;;;;;;1571118;74;637;-69
2022/11/18 01:17:44;;;;;;;;;;;23.00;57.50;;;;;;1550275;74;1531;-68
2022/11/18 01:19:46;;;;;;;;;;;23.10;57.50;;;;;;1561295;74;1200;-69
2022/11/18 01:21:48;;;;;;;;;;;23.10;57.50;;;;;;1560767;76;693;-70
2022/11/18 01:23:50;;;;;;;;;;;23.00;57.40;;;;;;1548356;75;707;-67
2022/11/18 01:25:52;;;;;;;;;;;23.00;57.30;;;;;;1545712;76;671;-70
2022/11/18 01:27:53;;;;;;;;;;;23.10;57.40;;;;;;1533613;75;738;-65
2022/11/18 01:29:55;;;;;;;;;;;23.00;57.30;;;;;;1549952;74;1950;-68
2022/11/18 01:31:57;;;;;;;;;;;23.10;57.60;;;;;;1539126;75;1578;-69
2022/11/18 01:33:59;;;;;;;;;;;23.00;57.60;;;;;;1548423;76;690;-68
2022/11/18 01:36:01;;;;;;;;;;;23.00;57.70;;;;;;1546445;75;755;-68
2022/11/18 01:38:03;;;;;;;;;;;23.00;57.70;;;;;;1545261;75;745;-68
2022/11/18 01:40:07;;;;;;;;;;;23.00;57.70;;;;;;1540805;75;738;-68
2022/11/18 01:42:10;;;;;;;;;;;23.00;57.80;;;;;;1532219;76;739;-68
2022/11/18 01:44:30;;;;;;;;;;;23.00;57.70;;;;;;1551319;75;2132;-68
2022/11/18 01:46:33;;;;;;;;;;;23.00;57.60;;;;;;1534691;76;1562;-68
2022/11/18 01:48:35;;;;;;;;;;;23.00;57.70;;;;;;1543831;75;1128;-68
2022/11/18 01:50:38;;;;;;;;;;;23.00;57.80;;;;;;1546336;76;1928;-68
2022/11/18 01:52:40;;;;;;;;;;;23.00;57.70;;;;;;1539378;75;667;-68
2022/11/18 01:54:43;;;;;;;;;;;23.00;57.70;;;;;;1539680;75;677;-68
2022/11/18 01:56:46;;;;;;;;;;;23.10;57.80;;;;;;1540067;75;685;-69
2022/11/18 01:58:49;;;;;;;;;;;23.00;57.60;;;;;;1550718;74;1207;-67
2022/11/18 02:00:51;;;;;;;;;;;23.10;57.70;;;;;;1551152;75;1535;-69
2022/11/18 02:02:53;;;;;;;;;;;23.00;57.60;;;;;;1538438;76;788;-66
2022/11/18 02:04:55;;;;;;;;;;;23.10;57.70;;;;;;1548827;76;730;-68
2022/11/18 02:06:57;;;;;;;;;;;23.00;57.60;;;;;;1548129;76;704;-67
2022/11/18 02:08:58;;;;;;;;;;;23.10;57.70;;;;;;1543350;75;1156;-67
2022/11/18 02:11:00;;;;;;;;;;;23.00;57.60;;;;;;1543054;76;1952;-68
2022/11/18 02:13:02;;;;;;;;;;;23.00;57.60;;;;;;1538319;76;675;-68
2022/11/18 02:15:04;;;;;;;;;;;23.10;57.70;;;;;;1543329;75;1734;-69
2022/11/18 02:17:24;;;;;;;;;;;23.00;57.60;;;;;;1559546;75;653;-68
2022/11/18 02:19:44;;;;;;;;;;;23.00;57.60;;;;;;1554647;74;1175;-64
2022/11/18 02:21:48;;;;;;;;;;;23.00;57.60;;;;;;1550918;75;703;-68
2022/11/18 02:23:51;;;;;;;;;;;23.00;57.70;;;;;;1522382;76;1071;-68
2022/11/18 02:25:55;;;;;;;;;;;23.00;57.70;;;;;;1531536;76;726;-68
2022/11/18 02:28:15;;;;;;;;;;;23.00;57.60;;;;;;1547317;76;1869;-69
2022/11/18 02:30:17;;;;;;;;;;;23.00;57.70;;;;;;1540100;76;1908;-68
2022/11/18 02:32:21;;;;;;;;;;;23.00;57.70;;;;;;1539952;75;686;-68
2022/11/18 02:34:24;;;;;;;;;;;23.00;57.70;;;;;;1548003;76;1964;-71
2022/11/18 02:36:28;;;;;;;;;;;23.00;57.70;;;;;;1551482;76;2169;-68
2022/11/18 02:38:31;;;;;;;;;;;23.00;57.60;;;;;;1546216;75;1217;-68
2022/11/18 02:40:37;;;;;;;;;;;23.00;57.60;;;;;;1544158;75;745;-68
2022/11/18 02:42:39;;;;;;;;;;;23.00;57.60;;;;;;1543671;75;1393;-68
2022/11/18 02:44:42;;;;;;;;;;;23.10;57.60;;;;;;1543325;75;648;-70
2022/11/18 02:46:45;;;;;;;;;;;23.00;57.50;;;;;;1553500;75;696;-69
2022/11/18 02:48:48;;;;;;;;;;;23.00;57.40;;;;;;1544474;75;1164;-68
2022/11/18 02:50:50;;;;;;;;;;;23.10;57.50;;;;;;1553869;76;1958;-70
2022/11/18 02:52:53;;;;;;;;;;;23.10;57.50;;;;;;1549499;75;682;-69
2022/11/18 02:54:55;;;;;;;;;;;23.00;57.30;;;;;;1539424;75;709;-68
2022/11/18 02:56:56;;;;;;;;;;;23.10;57.50;;;;;;1556655;75;1350;-68
2022/11/18 02:58:58;;;;;;;;;;;23.10;57.40;;;;;;1554931;74;1195;-68
2022/11/18 03:01:00;;;;;;;;;;;23.10;57.40;;;;;;1546415;75;657;-69
2022/11/18 03:03:04;;;;;;;;;;;23.10;57.40;;;;;;1549263;76;668;-69
2022/11/18 03:05:06;;;;;;;;;;;23.10;57.40;;;;;;1544422;75;1928;-68
2022/11/18 03:07:09;;;;;;;;;;;23.10;57.40;;;;;;1549705;76;812;-69
2022/11/18 03:09:19;;;;;;;;;;;23.00;57.30;;;;;;1541666;76;1119;-69
2022/11/18 03:11:24;;;;;;;;;;;23.10;57.40;;;;;;1536499;75;1928;-68
2022/11/18 03:13:28;;;;;;;;;;;23.00;57.30;;;;;;1549085;76;703;-69
2022/11/18 03:15:32;;;;;;;;;;;23.10;57.60;;;;;;1545444;75;633;-69
2022/11/18 03:17:35;;;;;;;;;;;23.10;57.50;;;;;;1551935;75;737;-69
2022/11/18 03:19:38;;;;;;;;;;;23.00;57.40;;;;;;1543209;75;2014;-69
2022/11/18 03:21:41;;;;;;;;;;;23.00;57.60;;;;;;1547033;76;693;-68
2022/11/18 03:23:45;;;;;;;;;;;23.00;57.70;;;;;;1546135;75;1568;-69
2022/11/18 03:25:51;;;;;;;;;;;22.90;58.00;;;;;;1543640;75;1809;-68
2022/11/18 03:27:58;;;;;;;;;;;22.90;58.20;;;;;;1540994;75;750;-67
2022/11/18 03:30:02;;;;;;;;;;;22.80;58.50;;;;;;1549664;74;1924;-65
2022/11/18 03:32:06;;;;;;;;;;;22.80;59.10;;;;;;1554074;75;1917;-69
2022/11/18 03:34:12;;;;;;;;;;;22.70;59.40;;;;;;1541939;76;1836;-67
2022/11/18 03:36:14;;;;;;;;;;;22.60;59.50;;;;;;1552318;76;749;-64
2022/11/18 03:38:20;;;;;;;;;;;22.60;59.80;;;;;;1551288;75;1564;-65
2022/11/18 03:40:24;;;;;;;;;;;22.60;60.10;;;;;;1555804;75;1930;-65
2022/11/18 03:42:27;;;;;;;;;;;22.60;60.50;;;;;;1547206;76;821;-65
2022/11/18 03:44:30;;;;;;;;;;;22.50;60.60;;;;;;1556158;75;688;-69
2022/11/18 03:46:34;;;;;;;;;;;22.40;60.60;;;;;;1556894;75;661;-69
2022/11/18 03:48:37;;;;;;;;;;;22.40;60.80;;;;;;1543872;75;1171;-68
2022/11/18 03:50:41;;;;;;;;;;;22.40;60.90;;;;;;1546998;75;1924;-69
2022/11/18 03:52:43;;;;;;;;;;;22.40;60.90;;;;;;1545936;75;1626;-68
2022/11/18 03:54:45;;;;;;;;;;;22.40;61.10;;;;;;1547393;75;653;-68
2022/11/18 03:56:48;;;;;;;;;;;22.50;61.30;;;;;;1562617;76;637;-68
2022/11/18 03:59:08;;;;;;;;;;;22.40;61.30;;;;;;1545542;75;1203;-70
2022/11/18 04:01:17;;;;;;;;;;;22.30;61.40;;;;;;1556765;76;669;-68
2022/11/18 04:03:19;;;;;;;;;;;22.40;61.40;;;;;;1557139;75;695;-68
2022/11/18 04:05:21;;;;;;;;;;;22.40;61.50;;;;;;1558001;75;672;-69
2022/11/18 04:07:33;;;;;;;;;;;22.40;61.50;;;;;;1549646;76;1728;-69
2022/11/18 04:09:36;;;;;;;;;;;22.30;61.50;;;;;;1548143;75;1159;-68
2022/11/18 04:14:00;;;;;;;;;;;22.40;61.60;;;;;;1559270;76;1599;-68
2022/11/18 04:16:02;;;;;;;;;;;22.40;61.70;;;;;;1541138;75;690;-69
2022/11/18 04:18:04;;;;;;;;;;;22.30;61.60;;;;;;1546343;76;658;-70
2022/11/18 04:20:06;;;;;;;;;;;22.40;61.50;;;;;;1554318;75;1554;-68
2022/11/18 04:22:08;;;;;;;;;;;22.30;61.60;;;;;;1544983;75;763;-70
2022/11/18 04:24:10;;;;;;;;;;;22.40;61.60;;;;;;1538178;75;680;-67
2022/11/18 04:26:12;;;;;;;;;;;22.40;61.50;;;;;;1544574;76;754;-67
2022/11/18 04:28:13;;;;;;;;;;;22.40;61.60;;;;;;1544202;75;1169;-67
2022/11/18 04:30:16;;;;;;;;;;;22.40;61.60;;;;;;1558027;76;789;-68
2022/11/18 04:32:17;;;;;;;;;;;22.40;61.70;;;;;;1541459;76;1933;-69
2022/11/18 04:34:19;;;;;;;;;;;22.40;61.70;;;;;;1539184;76;1534;-67
2022/11/18 04:36:21;;;;;;;;;;;22.50;61.90;;;;;;1544005;76;755;-70
2022/11/18 04:38:23;;;;;;;;;;;22.40;61.70;;;;;;1546026;76;1163;-68
2022/11/18 04:40:25;;;;;;;;;;;22.40;61.70;;;;;;1540903;76;708;-68
2022/11/18 04:42:27;;;;;;;;;;;22.40;61.70;;;;;;1548045;76;877;-68
2022/11/18 04:44:29;;;;;;;;;;;22.40;61.70;;;;;;1556921;76;645;-68
2022/11/18 04:46:31;;;;;;;;;;;22.40;61.60;;;;;;1539005;76;800;-68
2022/11/18 04:48:33;;;;;;;;;;;22.40;61.60;;;;;;1530936;75;1600;-68
2022/11/18 04:50:35;;;;;;;;;;;22.40;61.50;;;;;;1552352;76;681;-67
2022/11/18 04:52:37;;;;;;;;;;;22.50;61.60;;;;;;1539549;75;1951;-69
2022/11/18 04:54:39;;;;;;;;;;;22.40;61.50;;;;;;1543197;75;688;-69
2022/11/18 04:56:41;;;;;;;;;;;22.40;61.60;;;;;;1538096;76;752;-70
2022/11/18 04:58:43;;;;;;;;;;;22.40;61.60;;;;;;1546075;75;1171;-69
2022/11/18 05:00:44;;;;;;;;;;;22.40;61.60;;;;;;1538070;76;727;-69
2022/11/18 05:02:46;;;;;;;;;;;22.40;61.60;;;;;;1546968;76;1336;-68
2022/11/18 05:04:48;;;;;;;;;;;22.40;61.60;;;;;;1527254;76;752;-69
2022/11/18 05:06:50;;;;;;;;;;;22.40;61.60;;;;;;1536895;76;723;-69
2022/11/18 05:08:52;;;;;;;;;;;22.40;61.60;;;;;;1543352;75;1115;-68
2022/11/18 05:12:47;;;;;;;;;;;22.40;61.60;;;;;;1547619;75;1921;-70
2022/11/18 05:12:57;;;;;;;;;;;22.40;61.70;;;;;;1541832;75;1432;-66
2022/11/18 05:14:59;;;;;;;;;;;22.40;61.70;;;;;;1549217;75;700;-66
2022/11/18 05:17:02;;;;;;;;;;;22.40;61.70;;;;;;1547122;76;1379;-66
2022/11/18 05:19:04;;;;;;;;;;;22.50;61.80;;;;;;1546282;75;1204;-63
2022/11/18 05:21:05;;;;;;;;;;;22.40;61.60;;;;;;1552649;76;763;-66
2022/11/18 05:23:07;;;;;;;;;;;22.40;61.60;;;;;;1551835;75;662;-66
2022/11/18 05:25:09;;;;;;;;;;;22.40;61.60;;;;;;1547667;75;709;-64
2022/11/18 05:27:11;;;;;;;;;;;22.40;61.50;;;;;;1546942;75;609;-64
2022/11/18 05:29:13;;;;;;;;;;;22.40;61.60;;;;;;1549499;74;1147;-65
2022/11/18 05:31:15;;;;;;;;;;;22.40;61.60;;;;;;1537239;75;1949;-65
2022/11/18 05:33:17;;;;;;;;;;;22.40;61.70;;;;;;1537542;75;700;-65
2022/11/18 05:35:19;;;;;;;;;;;22.40;61.70;;;;;;1562157;75;755;-64
2022/11/18 05:37:21;;;;;;;;;;;22.40;61.80;;;;;;1547242;75;748;-66
2022/11/18 05:39:23;;;;;;;;;;;22.50;62.00;;;;;;1545320;75;1329;-66
2022/11/18 05:43:45;;;;;;;;;;;22.50;61.90;;;;;;1550792;76;725;-69
2022/11/18 05:45:47;;;;;;;;;;;22.50;61.90;;;;;;1544148;75;1604;-68
2022/11/18 05:48:03;;;;;;;;;;;22.40;61.80;;;;;;1517202;76;1377;-68
2022/11/18 05:50:05;;;;;;;;;;;22.40;61.80;;;;;;1544028;75;1130;-70
2022/11/18 05:52:07;;;;;;;;;;;22.50;61.90;;;;;;1548775;76;1932;-69
2022/11/18 05:54:09;;;;;;;;;;;22.40;61.80;;;;;;1552289;75;689;-68
2022/11/18 05:56:18;;;;;;;;;;;22.40;61.90;;;;;;1532629;75;684;-68
2022/11/18 05:58:20;;;;;;;;;;;22.50;62.00;;;;;;1543256;75;1529;-68
2022/11/18 06:00:22;;;;;;;;;;;22.40;61.90;;;;;;1540976;76;721;-68
2022/11/18 06:02:24;;;;;;;;;;;22.40;61.90;;;;;;1534023;75;694;-68
2022/11/18 06:04:28;;;;;;;;;;;22.40;61.90;;;;;;1541550;75;699;-70
2022/11/18 06:06:29;;;;;;;;;;;22.50;62.00;;;;;;1547559;75;1591;-68
2022/11/18 06:08:32;;;;;;;;;;;22.50;62.00;;;;;;1550447;74;1174;-68
2022/11/18 06:10:35;;;;;;;;;;;22.40;62.00;;;;;;1555828;76;666;-71
2022/11/18 06:12:38;;;;;;;;;;;22.50;62.30;;;;;;1544323;75;1916;-73
2022/11/18 06:14:41;;;;;;;;;;;22.40;62.40;;;;;;1542020;75;722;-72
2022/11/18 06:16:44;;;;;;;;;;;22.40;62.30;;;;;;1543902;76;657;-70
2022/11/18 06:18:46;;;;;;;;;;;22.40;62.30;;;;;;1547327;75;1166;-70
2022/11/18 06:20:48;;;;;;;;;;;22.40;62.10;;;;;;1538350;75;693;-70
2022/11/18 06:22:50;;;;;;;;;;;22.50;62.30;;;;;;1543062;75;692;-70
2022/11/18 06:24:52;;;;;;;;;;;22.40;62.10;;;;;;1560988;75;687;-72
2022/11/18 06:26:54;;;;;;;;;;;22.50;62.30;;;;;;1552529;76;1575;-71
2022/11/18 06:28:56;;;;;;;;;;;22.40;62.10;;;;;;1534226;75;1158;-72
2022/11/18 06:30:58;;;;;;;;;;;22.50;62.20;;;;;;1543100;75;691;-73
2022/11/18 06:33:00;;;;;;;;;;;22.50;62.20;;;;;;1541997;75;1944;-70
2022/11/18 06:35:02;;;;;;;;;;;22.40;62.00;;;;;;1544343;75;642;-69
2022/11/18 06:37:14;;;;;;;;;;;22.40;62.00;;;;;;1545125;76;689;-70
2022/11/18 06:39:16;;;;;;;;;;;22.40;62.00;;;;;;1536848;75;1155;-69
2022/11/18 06:41:18;;;;;;;;;;;22.50;62.20;;;;;;1548982;76;1567;-69
2022/11/18 06:43:38;;;;;;;;;;;22.40;62.00;;;;;;1552304;75;731;-70
2022/11/18 06:46:54;;;;;;;;;;;22.50;62.20;;;;;;1555361;75;776;-70
2022/11/18 06:47:43;;;;;;;;;;;22.40;62.20;;;;;;1544817;76;1502;-70
2022/11/18 06:49:45;;;;;;;;;;;22.40;62.10;;;;;;1552296;75;1126;-71
2022/11/18 06:51:47;;;;;;;;;;;22.50;62.30;;;;;;1543713;75;2004;-72
2022/11/18 06:53:49;;;;;;;;;;;22.40;62.10;;;;;;1553974;75;607;-70
2022/11/18 06:55:51;;;;;;;;;;;22.40;62.20;;;;;;1548640;75;1638;-71
2022/11/18 06:57:54;;;;;;;;;;;22.50;62.30;;;;;;1539646;75;673;-68
2022/11/18 06:59:56;;;;;;;;;;;22.40;62.40;;;;;;1546297;75;1176;-73
2022/11/18 07:01:58;;;;;;;;;;;22.40;62.40;;;;;;1547073;75;739;-71
2022/11/18 07:04:00;;;;;;;;;;;22.40;62.40;;;;;;1549453;75;753;-71
2022/11/18 07:06:02;;;;;;;;;;;22.50;62.80;;;;;;1546466;75;687;-71
2022/11/18 07:08:04;;;;;;;;;;;22.50;62.60;;;;;;1546793;75;682;-68
2022/11/18 07:10:06;;;;;;;;;;;22.50;62.30;;;;;;1582757;72;2077;-65
2022/11/18 07:12:08;;;;;;;;;;;22.50;62.30;;;;;;1577389;74;1924;-65
2022/11/18 07:14:10;;;;;;;;;;;22.50;62.30;;;;;;1589819;74;658;-67
2022/11/18 07:16:12;;;;;;;;;;;22.50;62.00;;;;;;1591844;74;659;-66
2022/11/18 07:18:14;;;;;;;;;;;22.50;62.00;;;;;;1592344;74;699;-66
2022/11/18 07:20:16;;;;;;;;;;;22.50;61.80;;;;;;1565397;73;1179;-66
2022/11/18 07:22:18;;;;;;;;;;;22.50;61.70;;;;;;1575687;74;674;-66
2022/11/18 07:24:20;;;;;;;;;;;22.50;61.60;;;;;;1551817;75;668;-65
2022/11/18 07:26:22;;;;;;;;;;;22.50;61.50;;;;;;1557857;76;669;-65
2022/11/18 07:28:24;;;;;;;;;;;22.50;61.60;;;;;;1558516;75;581;-64
2022/11/18 07:30:25;;;;;;;;;;;22.50;61.50;;;;;;1552517;76;1099;-65
2022/11/18 07:32:27;;;;;;;;;;;22.40;61.40;;;;;;1553432;76;1928;-65
2022/11/18 07:34:29;;;;;;;;;;;22.50;61.50;;;;;;1548148;76;639;-65
2022/11/18 07:36:31;;;;;;;;;;;22.40;61.40;;;;;;1558938;76;719;-64
2022/11/18 07:38:33;;;;;;;;;;;22.40;61.40;;;;;;1552202;75;1137;-67
2022/11/18 07:40:35;;;;;;;;;;;22.40;61.40;;;;;;1557727;75;739;-65
2022/11/18 07:42:41;;;;;;;;;;;22.50;61.40;;;;;;1551358;75;668;-66
2022/11/18 07:44:40;;;;;;;;;;;22.50;61.20;;;;;;1553835;74;1086;-66
2022/11/18 07:46:42;;;;;;;;;;;22.60;60.80;;;;;;1563025;74;702;-67
2022/11/18 07:48:44;;;;;;;;;;;22.70;60.50;;;;;;1557933;75;1122;-65
2022/11/18 07:50:46;;;;;;;;;;;22.80;60.20;;;;;;1557995;75;649;-67
2022/11/18 07:52:48;;;;;;;;;;;22.90;60.10;;;;;;1556722;75;1928;-65
2022/11/18 07:54:50;;;;;;;;;;;22.90;59.90;;;;;;1560820;76;605;-62
2022/11/18 07:56:52;;;;;;;;;;;22.90;59.80;;;;;;1561248;76;679;-66
2022/11/18 07:58:54;;;;;;;;;;;22.90;59.70;;;;;;1555459;75;1082;-66
2022/11/18 08:00:56;;;;;;;;;;;22.90;59.60;;;;;;1545261;76;667;-65
2022/11/18 08:02:58;;;;;;;;;;;22.90;59.60;;;;;;1558835;76;660;-65
2022/11/18 08:05:00;;;;;;;;;;;22.90;59.50;;;;;;1549195;75;677;-65
2022/11/18 08:07:01;;;;;;;;;;;22.90;59.50;;;;;;1547762;76;673;-66
2022/11/18 08:09:03;;;;;;;;;;;22.90;59.60;;;;;;1555084;75;1486;-67
2022/11/18 08:11:06;;;;;;;;;;;22.80;59.80;;;;;;1548652;76;788;-66
2022/11/18 08:13:08;;;;;;;;;;;22.70;60.10;;;;;;1549833;76;1934;-66
2022/11/18 08:15:10;;;;;;;;;;;22.70;60.40;;;;;;1554397;76;641;-66
2022/11/18 08:17:12;;;;;;;;;;;22.70;60.60;;;;;;1557095;75;675;-67
2022/11/18 08:19:14;;;;;;;;;;;22.60;60.90;;;;;;1558214;75;1154;-66
2022/11/18 08:21:17;;;;;;;;;;;22.50;61.30;;;;;;1550334;76;708;-66
2022/11/18 08:23:18;;;;;;;;;;;22.60;61.60;;;;;;1553074;75;614;-67
2022/11/18 08:25:20;;;;;;;;;;;22.50;62.10;;;;;;1557414;75;708;-66
2022/11/18 08:27:22;;;;;;;;;;;22.50;62.50;;;;;;1559026;76;767;-66
2022/11/18 08:29:24;;;;;;;;;;;22.40;62.80;;;;;;1562731;76;1218;-66
2022/11/18 08:31:26;;;;;;;;;;;22.50;63.20;;;;;;1547476;75;728;-65
2022/11/18 08:33:28;;;;;;;;;;;22.50;63.60;;;;;;1548952;75;1936;-65
2022/11/18 08:35:30;;;;;;;;;;;22.50;63.70;;;;;;1558205;75;661;-64
2022/11/18 08:37:33;;;;;;;;;;;22.50;63.90;;;;;;1556461;76;660;-66
2022/11/18 08:39:35;;;;;;;;;;;22.40;64.00;;;;;;1550622;75;1140;-66
2022/11/18 08:41:37;;;;;;;;;;;22.50;64.20;;;;;;1554447;76;675;-65
2022/11/18 08:43:39;;;;;;;;;;;22.50;64.40;;;;;;1553156;75;679;-65
2022/11/18 08:45:41;;;;;;;;;;;22.40;64.30;;;;;;1551125;74;645;-66
2022/11/18 08:47:43;;;;;;;;;;;22.40;64.50;;;;;;1547675;76;583;-65
2022/11/18 08:49:44;;;;;;;;;;;22.50;64.70;;;;;;1552961;75;1160;-66
2022/11/18 08:51:46;;;;;;;;;;;22.40;64.70;;;;;;1555547;75;700;-65
2022/11/18 08:53:48;;;;;;;;;;;22.40;64.70;;;;;;1550143;75;1966;-64
2022/11/18 08:55:55;;;;;;;;;;;22.50;64.70;;;;;;1548210;75;696;-65
2022/11/18 08:57:57;;;;;;;;;;;22.40;64.70;;;;;;1548889;76;1124;-65
2022/11/18 08:59:59;;;;;;;;;;;22.40;64.70;;;;;;1549890;75;1121;-64
2022/11/18 09:02:00;;;;;;;;;;;22.50;65.00;;;;;;1553985;76;649;-65
2022/11/18 09:04:03;;;;;;;;;;;22.40;65.00;;;;;;1551395;76;600;-66
2022/11/18 09:06:09;;;;;;;;;;;22.40;65.10;;;;;;1550677;75;1478;-65
2022/11/18 09:08:11;;;;;;;;;;;22.40;65.40;;;;;;1554745;75;1881;-67
2022/11/18 09:10:14;;;;;;;;;;;22.50;65.50;;;;;;1559425;75;1149;-69
2022/11/18 09:12:16;;;;;;;;;;;22.40;65.30;;;;;;1557366;76;720;-66
2022/11/18 09:14:18;;;;;;;;;;;22.50;65.30;;;;;;1557262;75;1932;-67
2022/11/18 09:16:22;;;;;;;;;;;22.50;65.10;;;;;;1547577;76;705;-68
2022/11/18 09:18:24;;;;;;;;;;;22.50;65.10;;;;;;1548189;76;782;-68
2022/11/18 09:20:25;;;;;;;;;;;22.50;65.00;;;;;;1550576;75;1112;-69
2022/11/18 09:22:27;;;;;;;;;;;22.40;64.90;;;;;;1561203;75;715;-67
2022/11/18 09:24:29;;;;;;;;;;;22.40;64.90;;;;;;1553023;75;714;-66
2022/11/18 09:26:31;;;;;;;;;;;22.40;64.90;;;;;;1546630;75;615;-71
2022/11/18 09:28:33;;;;;;;;;;;22.40;64.90;;;;;;1558917;75;1138;-71
2022/11/18 09:30:35;;;;;;;;;;;22.40;64.80;;;;;;1550619;75;653;-65
2022/11/18 09:32:37;;;;;;;;;;;22.40;64.70;;;;;;1549633;76;1936;-67
2022/11/18 09:34:38;;;;;;;;;;;22.40;64.60;;;;;;1545179;76;663;-66
2022/11/18 09:36:40;;;;;;;;;;;22.40;64.60;;;;;;1554052;76;609;-68
2022/11/18 09:38:42;;;;;;;;;;;22.50;64.50;;;;;;1551781;75;1142;-66
2022/11/18 09:41:04;;;;;;;;;;;22.50;64.50;;;;;;1551921;76;633;-66
2022/11/18 09:43:08;;;;;;;;;;;22.50;64.30;;;;;;1553129;76;663;-66
2022/11/18 09:45:11;;;;;;;;;;;22.50;64.30;;;;;;1554091;76;695;-66
2022/11/18 09:47:15;;;;;;;;;;;22.40;64.10;;;;;;1546747;76;617;-66
2022/11/18 09:49:25;;;;;;;;;;;22.40;64.10;;;;;;1542852;76;1653;-66
2022/11/18 09:51:26;;;;;;;;;;;22.40;64.00;;;;;;1549143;76;1859;-66
2022/11/18 09:53:28;;;;;;;;;;;22.50;64.10;;;;;;1564430;76;1916;-66
2022/11/18 09:55:31;;;;;;;;;;;22.40;64.00;;;;;;1554214;76;711;-66
2022/11/18 09:57:37;;;;;;;;;;;22.50;64.10;;;;;;1558245;76;627;-66
2022/11/18 09:59:39;;;;;;;;;;;22.40;64.00;;;;;;1552395;75;1177;-66
2022/11/18 10:01:41;;;;;;;;;;;22.40;63.80;;;;;;1559810;75;1462;-67
2022/11/18 10:03:43;;;;;;;;;;;22.50;63.80;;;;;;1553300;75;607;-66
2022/11/18 10:05:46;;;;;;;;;;;22.50;63.70;;;;;;1548960;76;687;-68
2022/11/18 10:07:50;;;;;;;;;;;22.50;63.60;;;;;;1555203;76;739;-66
2022/11/18 10:09:52;;;;;;;;;;;22.50;63.50;;;;;;1559059;75;1180;-63
2022/11/18 10:12:13;;;;;;;;;;;22.50;63.20;;;;;;1542394;76;805;-66
2022/11/18 10:14:16;;;;;;;;;;;22.60;62.90;;;;;;1546018;76;1919;-68
2022/11/18 10:16:40;;;;;;;;;;;22.70;62.40;;;;;;1546573;75;653;-70
2022/11/18 10:18:49;;;;;;;;;;;22.90;61.80;;;;;;1546306;75;1604;-66
2022/11/18 10:20:59;;;;;;;;;;;22.80;61.40;;;;;;1552987;76;743;-64
2022/11/18 10:23:17;;;;;;;;;;;22.90;61.30;;;;;;1546333;74;2139;-65
2022/11/18 10:25:19;;;;;;;;;;;22.90;61.20;;;;;;1543061;76;606;-65
2022/11/18 10:27:21;;;;;;;;;;;22.80;61.00;;;;;;1548188;76;718;-63
2022/11/18 10:29:22;;;;;;;;;;;22.80;61.00;;;;;;1547473;76;1149;-66
2022/11/18 10:31:24;;;;;;;;;;;22.80;61.00;;;;;;1557641;75;681;-67
2022/11/18 10:33:27;;;;;;;;;;;22.70;61.20;;;;;;1559796;76;1914;-65
2022/11/18 10:35:35;;;;;;;;;;;22.80;61.30;;;;;;1554258;75;1006;-68
2022/11/18 10:37:37;;;;;;;;;;;22.70;61.40;;;;;;1549022;76;576;-67
2022/11/18 10:39:52;;;;;;;;;;;22.70;61.60;;;;;;1546180;75;1143;-68
2022/11/18 10:41:56;;;;;;;;;;;22.60;61.60;;;;;;1557853;75;728;-66
2022/11/18 10:43:57;;;;;;;;;;;22.50;61.70;;;;;;1556673;74;961;-67
2022/11/18 10:46:01;;;;;;;;;;;22.60;61.90;;;;;;1549048;74;675;-70
2022/11/18 10:48:09;;;;;;;;;;;22.50;61.90;;;;;;1549844;74;1070;-67
2022/11/18 10:50:30;;;;;;;;;;;22.50;62.10;;;;;;1554200;76;1146;-66
2022/11/18 10:52:32;;;;;;;;;;;22.50;61.90;;;;;;1553594;74;668;-67
2022/11/18 10:54:34;;;;;;;;;;;22.50;62.00;;;;;;1562686;74;1951;-68
2022/11/18 10:56:46;;;;;;;;;;;22.50;61.90;;;;;;1550124;75;734;-64
2022/11/18 10:58:49;;;;;;;;;;;22.50;62.00;;;;;;1564223;75;1341;-64
2022/11/18 11:00:51;;;;;;;;;;;22.40;61.90;;;;;;1543670;76;713;-68
2022/11/18 11:02:53;;;;;;;;;;;22.40;61.90;;;;;;1559611;74;688;-66
2022/11/18 11:04:55;;;;;;;;;;;22.40;62.00;;;;;;1545785;75;732;-67
2022/11/18 11:06:58;;;;;;;;;;;22.40;62.00;;;;;;1559505;76;640;-66
2022/11/18 11:09:07;;;;;;;;;;;22.40;62.00;;;;;;1550787;76;1146;-67
2022/11/18 11:11:09;;;;;;;;;;;22.40;62.00;;;;;;1555429;76;810;-67
2022/11/18 11:13:12;;;;;;;;;;;22.30;62.10;;;;;;1535954;76;1939;-68
2022/11/18 11:15:16;;;;;;;;;;;22.40;62.10;;;;;;1590336;74;716;-66
2022/11/18 11:17:22;;;;;;;;;;;22.30;62.10;;;;;;1572151;74;762;-66
2022/11/18 11:19:25;;;;;;;;;;;22.30;62.10;;;;;;1556414;75;1081;-65
2022/11/18 11:21:27;;;;;;;;;;;22.30;62.10;;;;;;1550022;76;668;-66
2022/11/18 11:23:28;;;;;;;;;;;22.30;62.10;;;;;;1548774;76;682;-68
2022/11/18 11:25:32;;;;;;;;;;;22.30;62.10;;;;;;1545797;76;903;-66
2022/11/18 11:27:38;;;;;;;;;;;22.30;62.20;;;;;;1557269;75;1476;-67
2022/11/18 11:29:59;;;;;;;;;;;22.30;62.10;;;;;;1572825;73;1165;-68
2022/11/18 11:32:08;;;;;;;;;;;22.30;62.10;;;;;;1574246;74;683;-65
2022/11/18 11:34:11;;;;;;;;;;;22.30;62.10;;;;;;1578529;74;1919;-67
2022/11/18 11:36:18;;;;;;;;;;;22.30;62.10;;;;;;1572308;74;627;-67
2022/11/18 11:38:27;;;;;;;;;;;22.30;62.10;;;;;;1564333;73;1496;-67
2022/11/18 11:40:49;;;;;;;;;;;22.30;62.10;;;;;;1568997;73;1713;-69
2022/11/18 11:43:02;;;;;;;;;;;22.30;62.10;;;;;;1583752;73;690;-67
2022/11/18 11:45:08;;;;;;;;;;;22.30;62.00;;;;;;1588087;73;1804;-66
2022/11/18 11:49:42;;;;;;;;;;;22.20;61.80;;;;;;1588227;73;1652;-68
2022/11/18 11:51:50;;;;;;;;;;;22.30;62.00;;;;;;1583249;73;1042;-68
2022/11/18 11:53:54;;;;;;;;;;;22.30;61.90;;;;;;1581120;73;2321;-68
2022/11/18 11:56:16;;;;;;;;;;;22.20;61.80;;;;;;1580351;73;1804;-69
2022/11/18 11:58:25;;;;;;;;;;;22.30;61.90;;;;;;1583658;73;981;-68
2022/11/18 12:00:27;;;;;;;;;;;22.20;61.80;;;;;;1594571;73;1401;-69
2022/11/18 12:02:31;;;;;;;;;;;22.20;61.80;;;;;;1556974;74;1219;-68
2022/11/18 12:04:46;;;;;;;;;;;22.20;61.70;;;;;;1579642;73;704;-67
2022/11/18 12:06:49;;;;;;;;;;;22.30;61.80;;;;;;1563467;73;661;-68
2022/11/18 12:08:59;;;;;;;;;;;22.20;61.70;;;;;;1569908;73;1124;-68
2022/11/18 12:11:15;;;;;;;;;;;22.30;61.90;;;;;;1579552;73;1968;-67
2022/11/18 12:13:24;;;;;;;;;;;22.20;61.80;;;;;;1569641;73;809;-68
2022/11/18 12:15:43;;;;;;;;;;;22.30;61.80;;;;;;1585510;73;657;-68
2022/11/18 12:17:47;;;;;;;;;;;22.20;61.70;;;;;;1580386;73;717;-69
2022/11/18 12:19:49;;;;;;;;;;;22.20;61.70;;;;;;1560545;73;1281;-68
2022/11/18 12:21:57;;;;;;;;;;;22.20;61.60;;;;;;1585485;73;724;-69
2022/11/18 12:24:19;;;;;;;;;;;22.20;61.60;;;;;;1589780;73;696;-68
2022/11/18 12:26:26;;;;;;;;;;;22.20;61.60;;;;;;1592109;73;599;-68
2022/11/18 12:28:37;;;;;;;;;;;22.30;61.70;;;;;;1565611;73;1412;-66
2022/11/18 12:30:39;;;;;;;;;;;22.20;61.60;;;;;;1570941;73;676;-68